Time;durP1;ratioP1;P1;durP2;ratioP2;P2;SDS_P1;SDS_P2;PMS_P1;PMS_P2;Temp;Humidity;BMP_temperature;BMP_pressure;BME280_temperature;BME280_humidity;BME280_pressure;Samples;Min_cycle;Max_cycle;Signal;HPM_P1;HPM_P2
2021/07/11 00:02:19;;;;;;;13.65;9.88;;;;;;;24.15;64.25;100669.28;1735448;80;21042;-69
2021/07/11 00:04:45;;;;;;;12.78;9.73;;;;;;;24.14;64.11;100669.80;1766807;80;21690;-64
2021/07/11 00:07:14;;;;;;;13.70;11.08;;;;;;;24.08;63.94;100663.89;1770564;79;21011;-68
2021/07/11 00:09:44;;;;;;;14.13;10.38;;;;;;;24.04;63.89;100667.51;1708723;82;22357;-69
2021/07/11 00:12:11;;;;;;;13.25;9.78;;;;;;;24.01;63.73;100664.41;1771363;79;21046;-67
2021/07/11 00:14:37;;;;;;;12.28;10.50;;;;;;;23.96;63.59;100666.88;1738296;80;21032;-66
2021/07/11 00:17:05;;;;;;;13.38;10.82;;;;;;;23.93;63.20;100669.45;1779148;79;21125;-66
2021/07/11 00:19:31;;;;;;;14.78;10.30;;;;;;;23.89;63.35;100666.34;1767793;80;21093;-65
2021/07/11 00:21:57;;;;;;;11.73;10.50;;;;;;;23.85;63.31;100668.30;1767112;79;21027;-67
2021/07/11 00:24:24;;;;;;;15.13;10.70;;;;;;;23.82;63.25;100668.70;1768211;79;21016;-66
2021/07/11 00:26:51;;;;;;;14.53;10.60;;;;;;;23.82;63.26;100661.48;1767498;79;21386;-68
2021/07/11 00:29:17;;;;;;;13.93;10.68;;;;;;;23.79;63.24;100658.31;1763755;79;21042;-67
2021/07/11 00:31:45;;;;;;;15.10;11.63;;;;;;;23.77;63.41;100660.39;1763792;80;21096;-66
2021/07/11 00:34:11;;;;;;;13.70;10.85;;;;;;;23.73;63.47;100662.12;1742131;80;21869;-68
2021/07/11 00:36:38;;;;;;;12.53;11.05;;;;;;;23.71;63.49;100660.69;1763403;79;21062;-66
2021/07/11 00:39:05;;;;;;;13.45;10.45;;;;;;;23.68;63.52;100662.44;1755506;80;21056;-66
2021/07/11 00:41:38;;;;;;;14.35;11.22;;;;;;;23.64;63.75;100650.45;1763721;79;21791;-66
2021/07/11 00:44:07;;;;;;;12.70;10.40;;;;;;;23.61;63.79;100654.88;1743151;80;21069;-66
2021/07/11 00:46:35;;;;;;;13.48;10.88;;;;;;;23.59;63.74;100648.37;1757623;79;21632;-67
2021/07/11 00:49:04;;;;;;;14.55;9.83;;;;;;;23.58;63.79;100652.59;1766535;80;21599;-65
2021/07/11 00:51:33;;;;;;;14.65;10.75;;;;;;;23.55;63.48;100649.30;1748069;80;21078;-68
2021/07/11 00:53:59;;;;;;;12.13;10.40;;;;;;;23.47;63.14;100645.44;1766107;80;21019;-65
2021/07/11 00:56:26;;;;;;;14.85;10.75;;;;;;;23.37;63.04;100651.19;1763728;79;22146;-67
2021/07/11 00:58:54;;;;;;;11.63;10.45;;;;;;;23.31;63.26;100653.84;1759610;80;21122;-68
2021/07/11 01:01:36;;;;;;;11.33;9.40;;;;;;;23.25;63.48;100652.80;1763498;79;21018;-65
2021/07/11 01:04:07;;;;;;;12.55;10.28;;;;;;;23.21;63.53;100654.73;1766969;79;21086;-67
2021/07/11 01:06:38;;;;;;;13.40;10.43;;;;;;;23.15;63.85;100649.66;1746245;79;21526;-66
2021/07/11 01:09:12;;;;;;;12.03;9.70;;;;;;;23.13;64.21;100649.84;1739963;80;21046;-68
2021/07/11 01:11:46;;;;;;;13.13;10.40;;;;;;;23.19;64.36;100643.66;1701934;82;21152;-66
2021/07/11 01:14:14;;;;;;;15.30;9.85;;;;;;;23.24;64.64;100647.09;1682672;83;21092;-67
2021/07/11 01:16:43;;;;;;;14.15;10.15;;;;;;;23.28;64.71;100649.69;1747625;79;21039;-67
2021/07/11 01:19:33;;;;;;;15.20;10.23;;;;;;;23.28;64.76;100650.20;1744682;80;21075;-68
2021/07/11 01:22:03;;;;;;;10.20;9.10;;;;;;;23.25;64.79;100649.26;1738792;80;21551;-67
2021/07/11 01:24:34;;;;;;;12.43;10.03;;;;;;;23.20;65.16;100648.54;1766639;79;21274;-66
2021/07/11 01:27:04;;;;;;;10.60;9.48;;;;;;;23.18;65.23;100652.77;1764328;79;21011;-70
2021/07/11 01:29:30;;;;;;;14.70;10.32;;;;;;;23.18;65.12;100647.39;1764043;80;21562;-67
2021/07/11 01:31:58;;;;;;;12.73;9.78;;;;;;;23.19;65.04;100646.34;1763378;80;21067;-67
2021/07/11 01:34:24;;;;;;;12.37;10.75;;;;;;;23.18;65.00;100651.42;1762819;80;21103;-69
2021/07/11 01:36:51;;;;;;;11.60;10.13;;;;;;;23.14;65.02;100647.98;1737414;80;21905;-67
2021/07/11 01:39:18;;;;;;;13.40;10.72;;;;;;;23.12;65.09;100649.52;1766572;80;21087;-67
2021/07/11 01:41:46;;;;;;;12.28;10.98;;;;;;;23.11;65.23;100650.53;1763795;79;21085;-66
2021/07/11 01:44:15;;;;;;;12.47;10.05;;;;;;;23.09;65.45;100649.09;1680230;83;21309;-73
2021/07/11 01:46:43;;;;;;;13.60;10.65;;;;;;;23.07;65.64;100646.61;1767262;79;21075;-67
2021/07/11 01:49:09;;;;;;;13.05;9.65;;;;;;;23.11;65.89;100643.83;1762313;80;22869;-71
2021/07/11 01:51:36;;;;;;;10.75;9.23;;;;;;;23.15;65.90;100645.62;1764487;79;21059;-73
2021/07/11 01:54:03;;;;;;;13.98;11.05;;;;;;;23.18;65.87;100650.57;1769323;80;21082;-67
2021/07/11 01:56:30;;;;;;;14.00;10.60;;;;;;;23.17;65.87;100642.22;1771429;80;21095;-74
2021/07/11 01:58:57;;;;;;;11.00;9.75;;;;;;;23.16;65.66;100646.73;1706454;82;21100;-68
2021/07/11 02:01:25;;;;;;;11.80;10.60;;;;;;;23.14;65.69;100645.30;1744142;80;21069;-67
2021/07/11 02:03:54;;;;;;;15.72;10.23;;;;;;;23.08;65.89;100648.77;1734212;79;21054;-67
2021/07/11 02:06:21;;;;;;;13.18;9.20;;;;;;;23.06;66.06;100654.33;1766402;79;21023;-66
2021/07/11 02:08:49;;;;;;;13.93;9.98;;;;;;;23.10;66.17;100658.78;1769041;79;21058;-67
2021/07/11 02:11:18;;;;;;;13.32;9.53;;;;;;;23.12;66.30;100657.57;1762463;80;21075;-66
2021/07/11 02:13:51;;;;;;;11.40;9.68;;;;;;;23.12;66.15;100660.26;1700451;82;21255;-66
2021/07/11 02:16:28;;;;;;;13.43;10.13;;;;;;;23.10;66.15;100655.61;1763618;79;21537;-68
2021/07/11 02:18:56;;;;;;;11.88;10.65;;;;;;;23.09;66.31;100661.17;1759971;79;21084;-67
2021/07/11 02:21:27;;;;;;;12.18;10.10;;;;;;;23.07;66.55;100671.28;1738044;80;21035;-67
2021/07/11 02:23:55;;;;;;;16.05;10.20;;;;;;;23.03;66.67;100664.08;1764182;79;21094;-68
2021/07/11 02:26:24;;;;;;;12.63;10.15;;;;;;;23.04;66.77;100664.94;1763247;80;21174;-69
2021/07/11 02:28:50;;;;;;;13.55;9.48;;;;;;;23.07;66.73;100670.77;1765490;79;21022;-68
2021/07/11 02:31:17;;;;;;;12.95;9.93;;;;;;;23.10;66.67;100673.05;1698686;82;21118;-66
2021/07/11 02:33:45;;;;;;;12.30;10.63;;;;;;;23.10;66.56;100671.71;1770563;79;21052;-66
2021/07/11 02:36:19;;;;;;;16.10;12.00;;;;;;;23.07;66.41;100669.42;1772441;79;21078;-70
2021/07/11 02:38:55;;;;;;;16.12;11.40;;;;;;;23.02;66.32;100672.36;1740992;80;21094;-70
2021/07/11 02:41:25;;;;;;;15.93;11.97;;;;;;;22.90;66.33;100678.80;1745979;80;21573;-70
2021/07/11 02:43:55;;;;;;;15.15;12.37;;;;;;;22.80;66.52;100668.41;1746355;80;21490;-66
2021/07/11 02:46:27;;;;;;;13.60;11.70;;;;;;;22.75;66.31;100670.33;1743308;80;21050;-67
2021/07/11 02:48:54;;;;;;;12.15;10.85;;;;;;;22.76;66.30;100669.31;1740063;80;21082;-72
2021/07/11 02:51:25;;;;;;;12.35;10.38;;;;;;;22.79;66.25;100680.15;1773192;80;21865;-69
2021/07/11 02:53:56;;;;;;;14.23;11.80;;;;;;;22.84;66.47;100675.55;1773574;79;21007;-66
2021/07/11 02:56:22;;;;;;;14.07;10.85;;;;;;;22.86;66.50;100675.65;1743866;80;21062;-66
2021/07/11 02:58:50;;;;;;;12.55;9.93;;;;;;;22.89;66.78;100683.31;1771204;79;21035;-65
2021/07/11 03:01:17;;;;;;;12.33;10.35;;;;;;;22.91;66.92;100685.80;1770398;80;21050;-65
2021/07/11 03:03:45;;;;;;;14.95;10.53;;;;;;;22.87;66.81;100682.69;1766486;80;21486;-66
2021/07/11 03:06:12;;;;;;;28.52;17.35;;;;;;;22.84;66.55;100682.25;1766404;79;20991;-66
2021/07/11 03:08:39;;;;;;;30.48;18.73;;;;;;;22.85;66.31;100681.20;1772734;79;21042;-68
2021/07/11 03:11:08;;;;;;;55.05;30.85;;;;;;;22.85;66.43;100688.77;1770789;79;21066;-69
2021/07/11 03:13:37;;;;;;;23.62;16.35;;;;;;;22.87;66.14;100692.08;1766612;80;21517;-67
2021/07/11 03:16:05;;;;;;;19.30;14.78;;;;;;;22.83;65.62;100685.45;1767433;79;21085;-66
2021/07/11 03:18:33;;;;;;;17.48;13.08;;;;;;;22.81;65.62;100686.14;1747449;80;21520;-67
2021/07/11 03:21:01;;;;;;;21.75;13.80;;;;;;;22.81;65.70;100693.70;1739928;80;21053;-66
2021/07/11 03:23:28;;;;;;;23.10;15.90;;;;;;;22.82;65.78;100689.16;1742125;80;21080;-69
2021/07/11 03:25:54;;;;;;;18.15;13.10;;;;;;;22.87;65.91;100691.25;1769511;79;21022;-67
2021/07/11 03:28:21;;;;;;;15.95;10.90;;;;;;;22.96;65.73;100702.14;1766959;79;21106;-66
2021/07/11 03:30:50;;;;;;;12.88;10.80;;;;;;;23.02;65.68;100697.86;1776691;79;21441;-68
2021/07/11 03:33:16;;;;;;;14.68;11.28;;;;;;;23.04;65.74;100697.95;1704082;82;21088;-67
2021/07/11 03:35:58;;;;;;;16.32;11.10;;;;;;;23.05;66.00;100700.97;1737397;79;21748;-69
2021/07/11 03:38:45;;;;;;;13.85;10.50;;;;;;;23.05;66.19;100686.20;1737045;80;21029;-66
2021/07/11 03:41:14;;;;;;;12.95;10.90;;;;;;;23.09;66.30;100692.04;1769719;79;22107;-66
2021/07/11 03:43:42;;;;;;;12.58;10.10;;;;;;;23.12;66.38;100690.30;1766508;79;21039;-67
2021/07/11 03:46:09;;;;;;;13.98;10.18;;;;;;;23.17;66.17;100691.36;1736472;80;21003;-66
2021/07/11 03:48:45;;;;;;;17.27;11.00;;;;;;;23.26;66.01;100688.52;1743640;80;21570;-67
2021/07/11 03:51:13;;;;;;;14.87;11.35;;;;;;;23.35;65.88;100691.33;1764281;80;21058;-70
2021/07/11 03:53:40;;;;;;;15.23;11.18;;;;;;;23.41;65.70;100693.75;1774693;79;21435;-71
2021/07/11 03:56:07;;;;;;;13.28;9.88;;;;;;;23.44;65.25;100692.83;1767843;80;21650;-68
2021/07/11 03:58:37;;;;;;;15.03;10.50;;;;;;;23.48;65.15;100681.98;1764875;79;20965;-70
2021/07/11 04:01:04;;;;;;;13.65;10.43;;;;;;;23.55;64.92;100684.70;1769177;79;21066;-70
2021/07/11 04:03:31;;;;;;;15.58;11.40;;;;;;;23.61;64.77;100683.91;1751755;80;21035;-68
2021/07/11 04:05:58;;;;;;;15.18;10.50;;;;;;;23.72;64.38;100686.51;1766619;79;21033;-69
2021/07/11 04:08:24;;;;;;;17.70;10.43;;;;;;;23.84;63.94;100684.09;1770981;79;21074;-68
2021/07/11 04:10:50;;;;;;;13.18;10.45;;;;;;;23.92;63.48;100685.25;1767420;80;21711;-67
2021/07/11 04:13:18;;;;;;;10.68;9.33;;;;;;;24.00;63.45;100687.75;1762694;80;21051;-68
2021/07/11 04:15:51;;;;;;;11.22;9.60;;;;;;;24.07;63.87;100687.77;1766600;80;21587;-68
2021/07/11 04:18:20;;;;;;;12.23;9.80;;;;;;;24.14;63.27;100679.22;1734513;80;21006;-67
2021/07/11 04:20:46;;;;;;;11.88;9.33;;;;;;;24.19;62.64;100683.45;1768833;80;21615;-68
2021/07/11 04:23:13;;;;;;;12.60;8.93;;;;;;;24.24;62.51;100680.98;1765302;79;21651;-67
2021/07/11 04:25:41;;;;;;;12.85;9.05;;;;;;;24.30;62.19;100682.82;1769529;80;21034;-68
2021/07/11 04:28:08;;;;;;;10.45;8.23;;;;;;;24.36;62.17;100677.16;1764261;79;21027;-71
2021/07/11 04:30:34;;;;;;;14.10;9.35;;;;;;;24.44;61.20;100678.79;1769691;79;21206;-68
2021/07/11 04:33:01;;;;;;;9.68;8.55;;;;;;;24.55;60.80;100673.35;1766527;79;21553;-70
2021/07/11 04:35:28;;;;;;;11.48;8.55;;;;;;;24.63;60.43;100673.96;1761726;80;21023;-67
2021/07/11 04:37:55;;;;;;;11.95;9.23;;;;;;;24.66;59.97;100668.66;1767048;79;21067;-67
2021/07/11 04:40:23;;;;;;;10.82;8.80;;;;;;;24.71;60.16;100672.08;1765531;80;21071;-68
2021/07/11 04:42:50;;;;;;;11.45;9.20;;;;;;;24.74;60.46;100673.02;1721404;81;21154;-66
2021/07/11 04:48:06;;;;;;;9.98;8.55;;;;;;;24.82;60.49;100662.03;1786450;79;22844;-69
2021/07/11 04:50:33;;;;;;;12.78;8.65;;;;;;;24.78;60.64;100671.55;1750045;80;21572;-71
2021/07/11 04:52:59;;;;;;;12.35;9.60;;;;;;;24.83;60.75;100673.94;1746825;80;22237;-70
2021/07/11 04:55:25;;;;;;;9.80;8.43;;;;;;;24.93;60.57;100672.16;1745047;81;21078;-72
2021/07/11 04:57:51;;;;;;;11.25;9.30;;;;;;;25.03;60.19;100675.73;1750015;81;21036;-69
2021/07/11 05:00:23;;;;;;;10.58;9.05;;;;;;;25.08;60.12;100671.06;1743741;81;21050;-68
2021/07/11 05:02:49;;;;;;;10.90;8.13;;;;;;;25.12;59.51;100666.93;1746181;80;21303;-69
2021/07/11 05:05:15;;;;;;;11.60;9.43;;;;;;;25.15;58.92;100667.33;1748133;81;21583;-68
2021/07/11 05:07:42;;;;;;;12.50;9.95;;;;;;;25.20;59.01;100669.36;1748671;81;21569;-68
2021/07/11 05:10:10;;;;;;;10.68;8.75;;;;;;;25.25;58.31;100670.92;1705782;81;21014;-70
2021/07/11 05:12:36;;;;;;;10.78;8.93;;;;;;;25.30;58.71;100671.14;1725624;81;20927;-70
2021/07/11 05:15:04;;;;;;;10.18;7.70;;;;;;;25.35;59.00;100671.33;1721899;81;21361;-72
2021/07/11 05:17:31;;;;;;;10.85;8.15;;;;;;;25.42;58.18;100673.99;1723214;81;21124;-71
2021/07/11 05:19:57;;;;;;;10.93;8.88;;;;;;;25.53;57.92;100665.74;1724991;81;21509;-69
2021/07/11 05:22:24;;;;;;;10.98;8.23;;;;;;;25.63;57.81;100668.80;1710898;81;21360;-70
2021/07/11 05:24:50;;;;;;;8.55;7.65;;;;;;;25.70;57.79;100670.11;1719109;81;21070;-68
2021/07/11 05:27:17;;;;;;;10.00;7.72;;;;;;;25.75;57.05;100668.41;1706779;81;21046;-69
2021/07/11 05:29:43;;;;;;;10.43;7.33;;;;;;;25.80;56.36;100675.03;1726728;81;21503;-70
2021/07/11 05:32:11;;;;;;;8.60;7.03;;;;;;;25.83;55.57;100667.87;1703201;81;21145;-69
2021/07/11 05:34:37;;;;;;;12.63;7.22;;;;;;;25.87;55.40;100669.92;1722497;81;21105;-69
2021/07/11 05:37:04;;;;;;;7.75;6.15;;;;;;;25.94;53.83;100665.80;1722063;81;21050;-69
2021/07/11 05:39:31;;;;;;;9.43;6.60;;;;;;;25.98;52.45;100667.07;1723548;81;20955;-69
2021/07/11 05:41:59;;;;;;;9.03;6.87;;;;;;;26.05;52.25;100673.23;1722997;81;21103;-70
2021/07/11 05:44:25;;;;;;;9.85;7.45;;;;;;;26.10;52.48;100677.45;1723138;81;21418;-69
2021/07/11 05:46:51;;;;;;;10.23;6.78;;;;;;;26.15;52.70;100679.50;1724957;81;20872;-68
2021/07/11 05:49:18;;;;;;;7.20;5.87;;;;;;;26.21;52.74;100681.33;1714106;81;22141;-68
2021/07/11 05:51:44;;;;;;;9.15;6.65;;;;;;;26.28;52.91;100674.53;1716582;81;20951;-72
2021/07/11 05:54:11;;;;;;;8.28;6.42;;;;;;;26.36;53.12;100677.47;1701826;82;21023;-69
2021/07/11 05:56:37;;;;;;;9.08;7.20;;;;;;;26.40;52.94;100680.86;1709577;81;20979;-72
2021/07/11 05:59:04;;;;;;;8.03;6.47;;;;;;;26.45;53.44;100685.06;1724049;81;21045;-74
2021/07/11 06:01:32;;;;;;;8.85;7.60;;;;;;;26.49;52.81;100683.59;1716815;83;21089;-71
2021/07/11 06:03:59;;;;;;;10.25;7.20;;;;;;;26.53;53.17;100680.43;1722649;81;21293;-70
2021/07/11 06:06:25;;;;;;;12.03;8.30;;;;;;;26.59;52.98;100684.95;1721454;81;21012;-69
2021/07/11 06:08:53;;;;;;;11.03;7.83;;;;;;;26.64;53.18;100683.80;1720893;81;21369;-70
2021/07/11 06:11:20;;;;;;;10.05;7.70;;;;;;;26.68;53.31;100681.78;1723961;81;20907;-71
2021/07/11 06:13:47;;;;;;;9.18;7.03;;;;;;;26.71;53.85;100682.38;1722196;82;20927;-71
2021/07/11 06:16:13;;;;;;;8.88;7.33;;;;;;;26.73;54.23;100682.98;1707943;83;21058;-69
2021/07/11 06:18:40;;;;;;;10.10;7.65;;;;;;;26.76;54.04;100682.00;1714343;81;21096;-68
2021/07/11 06:21:06;;;;;;;8.43;7.25;;;;;;;26.78;54.18;100674.53;1720263;81;21074;-70
2021/07/11 06:23:33;;;;;;;10.28;7.80;;;;;;;26.85;54.57;100671.77;1699773;81;21568;-69
2021/07/11 06:26:00;;;;;;;9.43;7.12;;;;;;;26.95;54.57;100675.27;1722876;81;21118;-69
2021/07/11 06:28:26;;;;;;;10.53;7.33;;;;;;;27.06;54.45;100673.19;1701961;82;21050;-72
2021/07/11 06:30:53;;;;;;;9.70;7.53;;;;;;;27.17;54.16;100674.33;1701253;82;21186;-70
2021/07/11 06:33:20;;;;;;;10.13;7.50;;;;;;;27.24;53.63;100669.12;1718552;82;21042;-72
2021/07/11 06:35:46;;;;;;;9.95;7.33;;;;;;;27.32;53.48;100669.89;1716869;81;21084;-71
2021/07/11 06:38:13;;;;;;;8.55;7.05;;;;;;;27.36;53.28;100665.16;1723964;81;20927;-71
2021/07/11 06:40:39;;;;;;;7.97;6.97;;;;;;;27.45;52.98;100671.61;1724693;81;21054;-72
2021/07/11 06:43:05;;;;;;;8.95;8.00;;;;;;;27.51;52.63;100665.30;1721876;81;21140;-72
2021/07/11 06:45:32;;;;;;;9.60;7.78;;;;;;;27.59;52.60;100667.16;1722007;81;21302;-68
2021/07/11 06:47:59;;;;;;;11.78;7.28;;;;;;;27.69;52.41;100668.47;1699138;81;21048;-72
2021/07/11 06:50:25;;;;;;;6.92;6.08;;;;;;;27.75;51.57;100662.97;1714293;81;21153;-70
2021/07/11 06:52:52;;;;;;;8.90;6.03;;;;;;;27.82;50.46;100664.77;1709886;82;21106;-72
2021/07/11 06:55:20;;;;;;;6.85;5.58;;;;;;;27.84;48.52;100658.08;1711833;81;21407;-71
2021/07/11 06:57:46;;;;;;;9.70;5.30;;;;;;;27.88;47.10;100657.09;1713118;81;21055;-71
2021/07/11 07:00:14;;;;;;;7.50;4.78;;;;;;;27.89;46.20;100655.51;1711358;81;21659;-72
2021/07/11 07:02:41;;;;;;;9.48;5.00;;;;;;;27.91;45.07;100653.39;1715711;81;21110;-74
2021/07/11 07:05:09;;;;;;;9.00;5.50;;;;;;;27.95;46.93;100649.72;1714561;81;21062;-71
2021/07/11 07:07:36;;;;;;;8.48;5.25;;;;;;;28.01;47.10;100648.81;1692377;83;21086;-70
2021/07/11 07:10:05;;;;;;;6.65;5.70;;;;;;;28.07;47.02;100650.56;1710691;81;21069;-68
2021/07/11 07:12:32;;;;;;;7.75;5.97;;;;;;;28.16;47.12;100656.48;1716765;81;21054;-71
2021/07/11 07:14:59;;;;;;;7.80;6.55;;;;;;;28.25;47.24;100652.90;1713817;81;21043;-69
2021/07/11 07:17:25;;;;;;;8.78;6.03;;;;;;;28.31;46.63;100656.00;1719549;81;21059;-72
2021/07/11 07:19:52;;;;;;;10.72;5.40;;;;;;;28.35;46.64;100656.66;1710784;81;21129;-70
2021/07/11 07:22:18;;;;;;;8.43;5.83;;;;;;;28.40;46.99;100660.02;1695465;81;21022;-73
2021/07/11 07:24:45;;;;;;;7.15;5.25;;;;;;;28.47;46.14;100659.91;1713585;81;22290;-71
2021/07/11 07:27:11;;;;;;;9.48;4.50;;;;;;;28.54;45.72;100663.31;1711611;81;21007;-69
2021/07/11 07:29:38;;;;;;;7.10;5.72;;;;;;;28.61;45.91;100661.33;1694498;83;21026;-68
2021/07/11 07:32:05;;;;;;;7.53;5.28;;;;;;;28.69;45.70;100662.34;1713716;82;21149;-70
2021/07/11 07:34:32;;;;;;;6.08;4.85;;;;;;;28.75;45.19;100661.09;1693509;82;21594;-73
2021/07/11 07:36:59;;;;;;;6.80;4.90;;;;;;;28.80;44.76;100666.11;1716885;81;21532;-69
2021/07/11 07:39:29;;;;;;;7.55;5.28;;;;;;;28.85;44.22;100666.73;1696587;81;21109;-69
2021/07/11 07:41:55;;;;;;;6.05;3.98;;;;;;;28.89;44.29;100659.80;1714818;81;21568;-69
2021/07/11 07:44:22;;;;;;;6.87;4.22;;;;;;;28.95;43.66;100660.20;1715410;82;21126;-72
2021/07/11 07:46:49;;;;;;;7.67;5.40;;;;;;;29.01;43.61;100659.23;1720122;81;21347;-69
2021/07/11 07:49:16;;;;;;;7.40;4.83;;;;;;;29.08;43.16;100655.88;1700578;81;21592;-73
2021/07/11 07:51:42;;;;;;;8.73;5.20;;;;;;;29.13;43.16;100653.78;1722506;81;21124;-70
2021/07/11 07:54:09;;;;;;;6.72;4.70;;;;;;;29.19;42.95;100654.22;1723113;81;21046;-69
2021/07/11 07:56:36;;;;;;;6.33;4.47;;;;;;;29.26;42.96;100659.51;1722184;81;21951;-68
2021/07/11 07:59:03;;;;;;;7.35;4.62;;;;;;;29.31;43.29;100652.83;1721928;81;21041;-68
2021/07/11 08:01:29;;;;;;;7.22;4.83;;;;;;;29.37;42.93;100649.17;1701588;81;21090;-68
2021/07/11 08:03:56;;;;;;;6.60;4.95;;;;;;;29.44;42.49;100655.80;1702646;81;21030;-72
2021/07/11 08:06:25;;;;;;;9.65;5.33;;;;;;;29.48;42.37;100646.11;1721637;81;22129;-68
2021/07/11 08:08:51;;;;;;;6.35;4.90;;;;;;;29.52;41.94;100645.93;1703822;81;21800;-69
2021/07/11 08:11:18;;;;;;;6.17;4.50;;;;;;;29.54;42.13;100642.44;1721412;81;21043;-68
2021/07/11 08:13:44;;;;;;;6.33;4.97;;;;;;;29.57;41.12;100640.59;1722075;81;22138;-68
2021/07/11 08:16:10;;;;;;;9.35;5.28;;;;;;;29.59;41.33;100645.78;1719410;81;21081;-68
2021/07/11 08:18:38;;;;;;;6.67;4.00;;;;;;;29.64;40.98;100644.52;1719134;82;21086;-72
2021/07/11 08:21:05;;;;;;;6.35;4.58;;;;;;;29.67;39.91;100638.58;1722316;81;21145;-70
2021/07/11 08:23:32;;;;;;;7.30;4.78;;;;;;;29.71;40.47;100639.76;1718599;81;21114;-71
2021/07/11 08:25:58;;;;;;;6.15;4.58;;;;;;;29.75;41.29;100636.83;1721201;81;21245;-69
2021/07/11 08:28:24;;;;;;;5.70;4.03;;;;;;;29.81;41.42;100633.19;1721394;81;21126;-69
2021/07/11 08:30:51;;;;;;;9.90;4.65;;;;;;;29.89;39.85;100631.97;1721074;81;21070;-69
2021/07/11 08:33:17;;;;;;;7.40;4.62;;;;;;;29.94;39.85;100628.50;1718163;81;21126;-69
2021/07/11 08:35:43;;;;;;;10.45;4.40;;;;;;;30.00;40.26;100630.23;1719839;81;21031;-69
2021/07/11 08:38:10;;;;;;;5.45;4.00;;;;;;;30.08;40.14;100623.59;1717352;81;21109;-70
2021/07/11 08:40:37;;;;;;;7.53;4.50;;;;;;;30.12;39.64;100620.11;1717674;81;21635;-68
2021/07/11 08:43:07;;;;;;;5.70;4.08;;;;;;;30.22;38.27;100614.58;1723129;81;21017;-71
2021/07/11 08:45:34;;;;;;;8.20;4.53;;;;;;;30.25;38.54;100614.89;1723049;81;21091;-70
2021/07/11 08:48:01;;;;;;;5.67;3.98;;;;;;;30.32;38.71;100612.01;1721779;81;21111;-71
2021/07/11 08:50:34;;;;;;;4.87;3.72;;;;;;;30.39;39.49;100614.03;1720291;82;21078;-69
2021/07/11 08:53:01;;;;;;;7.33;4.08;;;;;;;30.47;39.21;100614.97;1705662;82;21031;-69
2021/07/11 08:55:28;;;;;;;6.10;4.33;;;;;;;30.56;38.67;100618.08;1720350;81;21053;-68
2021/07/11 08:57:57;;;;;;;6.87;4.65;;;;;;;30.64;39.06;100614.13;1720135;82;21133;-69
2021/07/11 09:00:32;;;;;;;6.15;4.50;;;;;;;30.72;38.72;100615.86;1706884;82;21007;-69
2021/07/11 09:02:59;;;;;;;;;;;;;;;30.79;37.95;100618.39;1720694;82;21126;-71
2021/07/11 09:05:31;;;;;;;8.05;4.45;;;;;;;30.83;38.03;100615.44;1723259;83;20228;-69
2021/07/11 09:08:16;;;;;;;6.83;4.22;;;;;;;30.80;37.72;100623.28;1720516;82;21062;-69
2021/07/11 09:10:57;;;;;;;5.10;3.77;;;;;;;30.78;38.12;100616.73;1721423;81;26961;-69
2021/07/11 09:13:26;;;;;;;6.15;3.83;;;;;;;30.81;37.55;100615.42;1718662;82;21050;-69
2021/07/11 09:15:55;;;;;;;6.92;4.22;;;;;;;30.90;37.70;100612.53;1723555;82;21141;-69
2021/07/11 09:18:28;;;;;;;5.75;4.25;;;;;;;31.03;37.00;100608.66;1731402;81;21033;-68
2021/07/11 09:21:11;;;;;;;5.90;4.33;;;;;;;31.10;37.62;100608.76;1723084;81;21505;-69
2021/07/11 09:23:38;;;;;;;6.28;4.30;;;;;;;31.10;37.02;100601.97;1721376;82;21528;-69
2021/07/11 09:26:11;;;;;;;6.53;5.08;;;;;;;31.12;37.56;100604.44;1720403;82;21004;-69
2021/07/11 09:28:50;;;;;;;9.20;4.80;;;;;;;31.11;37.23;100604.13;1721593;81;22187;-69
2021/07/11 09:31:20;;;;;;;7.70;4.47;;;;;;;31.11;37.12;100607.66;1671424;83;21042;-69
2021/07/11 09:33:55;;;;;;;6.15;4.78;;;;;;;31.14;36.89;100604.99;1717880;82;21043;-70
2021/07/11 09:36:22;;;;;;;6.72;5.12;;;;;;;31.13;36.47;100604.70;1692894;83;21059;-70
2021/07/11 09:38:54;;;;;;;6.45;4.97;;;;;;;31.09;35.81;100598.14;1721973;81;21037;-69
2021/07/11 09:41:23;;;;;;;5.75;4.10;;;;;;;31.05;35.77;100592.40;1701202;83;21114;-69
2021/07/11 09:43:51;;;;;;;6.72;4.17;;;;;;;31.07;35.66;100592.14;1720394;82;21061;-69
2021/07/11 09:46:18;;;;;;;6.03;4.45;;;;;;;31.09;35.82;100588.63;1721838;81;21042;-69
2021/07/11 09:48:44;;;;;;;5.60;4.22;;;;;;;31.11;35.88;100589.19;1698753;82;21267;-69
2021/07/11 09:51:24;;;;;;;5.60;4.17;;;;;;;31.14;35.55;100588.69;1714033;82;21050;-69
2021/07/11 09:53:53;;;;;;;6.65;4.50;;;;;;;31.20;36.21;100594.44;1707267;82;21538;-70
2021/07/11 09:56:42;;;;;;;5.55;4.00;;;;;;;31.32;36.90;100589.40;1695247;82;21163;-70
2021/07/11 09:59:11;;;;;;;5.80;4.62;;;;;;;31.44;37.02;100585.46;1705226;82;21979;-69
2021/07/11 10:01:40;;;;;;;6.10;4.42;;;;;;;31.62;36.41;100586.19;1689761;82;21877;-70
2021/07/11 10:04:06;;;;;;;5.62;3.98;;;;;;;31.75;36.59;100582.23;1708195;82;21734;-70
2021/07/11 10:06:34;;;;;;;5.53;4.12;;;;;;;31.87;36.35;100578.78;1708502;82;21376;-71
2021/07/11 10:09:01;;;;;;;8.45;5.37;;;;;;;31.96;35.18;100581.31;1707724;82;21100;-72
2021/07/11 10:11:28;;;;;;;5.60;4.33;;;;;;;31.99;34.46;100583.52;1710471;82;21665;-71
2021/07/11 10:13:54;;;;;;;5.30;4.10;;;;;;;32.04;34.09;100584.07;1695125;83;21350;-70
2021/07/11 10:16:23;;;;;;;5.28;4.33;;;;;;;32.09;34.12;100578.69;1706056;82;21063;-69
2021/07/11 10:18:58;;;;;;;6.85;4.30;;;;;;;32.17;33.37;100576.03;1708760;82;20968;-71
2021/07/11 10:21:29;;;;;;;6.67;4.12;;;;;;;32.20;33.80;100574.16;1707424;83;21051;-69
2021/07/11 10:23:57;;;;;;;5.53;4.28;;;;;;;32.23;34.14;100573.63;1694289;82;22434;-72
2021/07/11 10:26:23;;;;;;;5.42;4.12;;;;;;;32.24;33.94;100583.97;1709876;82;21062;-70
2021/07/11 10:28:50;;;;;;;5.42;3.95;;;;;;;32.25;35.62;100578.27;1705624;82;21826;-70
2021/07/11 10:31:25;;;;;;;5.72;4.30;;;;;;;32.31;35.58;100574.50;1707116;82;21534;-71
2021/07/11 10:33:54;;;;;;;6.03;4.42;;;;;;;32.37;34.26;100576.15;1698696;82;21420;-70
2021/07/11 10:36:35;;;;;;;7.05;4.42;;;;;;;32.35;32.93;100574.23;1703974;82;21085;-68
2021/07/11 10:39:04;;;;;;;7.20;4.72;;;;;;;32.34;32.55;100573.95;1710606;82;22351;-69
2021/07/11 10:41:32;;;;;;;5.67;4.10;;;;;;;32.41;32.25;100565.55;1693981;82;21108;-71
2021/07/11 10:44:11;;;;;;;7.37;4.22;;;;;;;32.44;32.11;100567.74;1714228;82;21046;-70
2021/07/11 10:46:44;;;;;;;5.80;4.12;;;;;;;32.50;33.21;100561.80;1706473;82;21550;-71
2021/07/11 10:49:15;;;;;;;6.85;4.22;;;;;;;32.61;33.02;100571.66;1713937;82;21106;-71
2021/07/11 10:51:45;;;;;;;5.70;4.10;;;;;;;32.68;32.13;100568.17;1714237;82;21148;-73
2021/07/11 10:54:32;;;;;;;7.03;4.60;;;;;;;32.73;32.38;100568.20;1696098;83;21039;-70
2021/07/11 10:57:03;;;;;;;7.55;4.03;;;;;;;32.83;33.11;100563.86;1715200;81;21144;-73
2021/07/11 10:59:33;;;;;;;10.03;4.45;;;;;;;32.93;34.10;100565.25;1714890;83;21083;-70
2021/07/11 11:02:00;;;;;;;6.78;4.87;;;;;;;33.04;33.74;100566.92;1715919;83;21049;-70
2021/07/11 11:04:27;;;;;;;5.87;4.58;;;;;;;33.11;33.37;100563.39;1696462;83;21070;-70
2021/07/11 11:06:55;;;;;;;5.85;4.65;;;;;;;33.15;33.10;100559.61;1713145;82;21047;-73
2021/07/11 11:09:47;;;;;;;8.35;4.37;;;;;;;33.23;32.89;100562.36;1714332;81;21042;-70
2021/07/11 11:12:29;;;;;;;5.78;4.33;;;;;;;33.26;33.02;100557.19;1714908;82;21089;-70
2021/07/11 11:15:03;;;;;;;7.05;4.87;;;;;;;33.33;32.36;100559.64;1715895;83;21138;-70
2021/07/11 11:17:34;;;;;;;6.55;5.15;;;;;;;33.37;31.92;100551.73;1717045;81;21133;-73
2021/07/11 11:20:07;;;;;;;6.45;4.80;;;;;;;33.40;32.13;100553.38;1726766;82;21640;-71
2021/07/11 11:22:33;;;;;;;6.12;4.80;;;;;;;33.45;32.57;100548.47;1721257;81;21063;-69
2021/07/11 11:25:00;;;;;;;7.80;4.85;;;;;;;33.52;32.63;100550.38;1717030;82;21137;-70
2021/07/11 11:27:38;;;;;;;8.00;4.58;;;;;;;33.60;32.37;100549.03;1715255;81;21321;-70
2021/07/11 11:30:20;;;;;;;5.75;5.05;;;;;;;33.59;31.03;100544.66;1696758;82;21019;-70